sensor_id;sensor_type;location;lat;lon;timestamp;P1;durP1;ratioP1;P2;durP2;ratioP2
14358;SDS011;7263;49.418;11.064;2022-11-20T00:00:39;20.33;;;18.13;;
14358;SDS011;7263;49.418;11.064;2022-11-20T00:03:06;23.77;;;20.03;;
14358;SDS011;7263;49.418;11.064;2022-11-20T00:05:33;20.67;;;17.70;;
14358;SDS011;7263;49.418;11.064;2022-11-20T00:08:00;18.90;;;16.90;;
14358;SDS011;7263;49.418;11.064;2022-11-20T00:10:27;21.70;;;18.63;;
14358;SDS011;7263;49.418;11.064;2022-11-20T00:12:54;21.60;;;18.23;;
14358;SDS011;7263;49.418;11.064;2022-11-20T00:15:21;21.27;;;18.37;;
14358;SDS011;7263;49.418;11.064;2022-11-20T00:17:49;21.20;;;18.37;;
14358;SDS011;7263;49.418;11.064;2022-11-20T00:20:16;19.57;;;17.47;;
14358;SDS011;7263;49.418;11.064;2022-11-20T00:22:43;20.23;;;18.03;;
14358;SDS011;7263;49.418;11.064;2022-11-20T00:25:10;21.50;;;18.57;;
14358;SDS011;7263;49.418;11.064;2022-11-20T00:27:36;20.50;;;17.77;;
14358;SDS011;7263;49.418;11.064;2022-11-20T00:30:04;20.97;;;18.27;;
14358;SDS011;7263;49.418;11.064;2022-11-20T00:32:31;20.83;;;18.20;;
14358;SDS011;7263;49.418;11.064;2022-11-20T00:34:59;26.90;;;23.10;;
14358;SDS011;7263;49.418;11.064;2022-11-20T00:37:26;22.50;;;19.40;;
14358;SDS011;7263;49.418;11.064;2022-11-20T00:39:53;22.70;;;19.97;;
14358;SDS011;7263;49.418;11.064;2022-11-20T00:42:20;25.67;;;22.07;;
14358;SDS011;7263;49.418;11.064;2022-11-20T00:44:47;24.47;;;19.57;;
14358;SDS011;7263;49.418;11.064;2022-11-20T00:47:14;21.43;;;18.87;;
14358;SDS011;7263;49.418;11.064;2022-11-20T00:49:41;22.43;;;18.90;;
14358;SDS011;7263;49.418;11.064;2022-11-20T00:52:09;21.70;;;18.93;;
14358;SDS011;7263;49.418;11.064;2022-11-20T00:54:35;23.07;;;19.60;;
14358;SDS011;7263;49.418;11.064;2022-11-20T00:57:03;27.17;;;22.20;;
14358;SDS011;7263;49.418;11.064;2022-11-20T00:59:30;22.50;;;19.07;;
14358;SDS011;7263;49.418;11.064;2022-11-20T01:01:57;24.27;;;19.53;;
14358;SDS011;7263;49.418;11.064;2022-11-20T01:04:23;23.60;;;20.13;;
14358;SDS011;7263;49.418;11.064;2022-11-20T01:06:50;23.53;;;19.60;;
14358;SDS011;7263;49.418;11.064;2022-11-20T01:09:19;25.53;;;20.27;;
14358;SDS011;7263;49.418;11.064;2022-11-20T01:11:45;24.47;;;20.23;;
14358;SDS011;7263;49.418;11.064;2022-11-20T01:14:13;24.40;;;20.27;;
14358;SDS011;7263;49.418;11.064;2022-11-20T01:16:43;25.50;;;20.37;;
14358;SDS011;7263;49.418;11.064;2022-11-20T01:19:12;28.03;;;23.50;;
14358;SDS011;7263;49.418;11.064;2022-11-20T01:21:41;24.07;;;19.77;;
14358;SDS011;7263;49.418;11.064;2022-11-20T01:24:10;24.43;;;19.90;;
14358;SDS011;7263;49.418;11.064;2022-11-20T01:26:40;24.87;;;19.73;;
14358;SDS011;7263;49.418;11.064;2022-11-20T01:29:09;24.33;;;19.37;;
14358;SDS011;7263;49.418;11.064;2022-11-20T01:31:39;23.27;;;18.70;;
14358;SDS011;7263;49.418;11.064;2022-11-20T01:34:06;23.47;;;18.73;;
14358;SDS011;7263;49.418;11.064;2022-11-20T01:36:36;24.73;;;18.57;;
14358;SDS011;7263;49.418;11.064;2022-11-20T01:39:05;28.87;;;20.13;;
14358;SDS011;7263;49.418;11.064;2022-11-20T01:41:33;26.43;;;20.80;;
14358;SDS011;7263;49.418;11.064;2022-11-20T01:44:20;26.40;;;21.70;;
14358;SDS011;7263;49.418;11.064;2022-11-20T01:46:51;26.43;;;20.13;;
14358;SDS011;7263;49.418;11.064;2022-11-20T01:49:23;24.43;;;19.93;;
14358;SDS011;7263;49.418;11.064;2022-11-20T01:51:53;27.50;;;22.33;;
14358;SDS011;7263;49.418;11.064;2022-11-20T01:54:23;28.83;;;22.63;;
14358;SDS011;7263;49.418;11.064;2022-11-20T01:56:56;30.60;;;24.63;;
14358;SDS011;7263;49.418;11.064;2022-11-20T01:59:26;26.10;;;20.93;;
14358;SDS011;7263;49.418;11.064;2022-11-20T02:01:55;25.33;;;20.47;;
14358;SDS011;7263;49.418;11.064;2022-11-20T02:04:22;28.40;;;22.17;;
14358;SDS011;7263;49.418;11.064;2022-11-20T02:06:51;30.50;;;24.43;;
14358;SDS011;7263;49.418;11.064;2022-11-20T02:09:24;27.47;;;23.37;;
14358;SDS011;7263;49.418;11.064;2022-11-20T02:11:50;39.23;;;31.40;;
14358;SDS011;7263;49.418;11.064;2022-11-20T02:14:18;29.20;;;21.63;;
14358;SDS011;7263;49.418;11.064;2022-11-20T02:16:45;27.37;;;20.40;;
14358;SDS011;7263;49.418;11.064;2022-11-20T02:19:17;30.00;;;23.60;;
14358;SDS011;7263;49.418;11.064;2022-11-20T02:21:50;27.27;;;21.27;;
14358;SDS011;7263;49.418;11.064;2022-11-20T02:24:24;28.07;;;20.83;;
14358;SDS011;7263;49.418;11.064;2022-11-20T02:26:52;24.73;;;19.63;;
14358;SDS011;7263;49.418;11.064;2022-11-20T02:29:23;26.80;;;20.17;;
14358;SDS011;7263;49.418;11.064;2022-11-20T02:31:52;27.10;;;19.87;;
14358;SDS011;7263;49.418;11.064;2022-11-20T02:34:21;25.53;;;19.37;;
14358;SDS011;7263;49.418;11.064;2022-11-20T02:36:48;28.73;;;19.60;;
14358;SDS011;7263;49.418;11.064;2022-11-20T02:39:17;29.40;;;20.80;;
14358;SDS011;7263;49.418;11.064;2022-11-20T02:41:46;26.30;;;19.90;;
14358;SDS011;7263;49.418;11.064;2022-11-20T02:44:13;31.47;;;20.83;;
14358;SDS011;7263;49.418;11.064;2022-11-20T02:46:40;29.03;;;20.23;;
14358;SDS011;7263;49.418;11.064;2022-11-20T02:49:07;29.13;;;20.33;;
14358;SDS011;7263;49.418;11.064;2022-11-20T02:51:34;29.53;;;20.20;;
14358;SDS011;7263;49.418;11.064;2022-11-20T02:54:01;30.60;;;20.57;;
14358;SDS011;7263;49.418;11.064;2022-11-20T02:56:28;27.53;;;19.80;;
14358;SDS011;7263;49.418;11.064;2022-11-20T02:58:56;28.80;;;20.30;;
14358;SDS011;7263;49.418;11.064;2022-11-20T03:01:23;31.07;;;20.53;;
14358;SDS011;7263;49.418;11.064;2022-11-20T03:03:50;29.53;;;19.43;;
14358;SDS011;7263;49.418;11.064;2022-11-20T03:06:19;32.23;;;20.97;;
14358;SDS011;7263;49.418;11.064;2022-11-20T03:08:46;29.77;;;19.63;;
14358;SDS011;7263;49.418;11.064;2022-11-20T03:11:13;26.93;;;19.77;;
14358;SDS011;7263;49.418;11.064;2022-11-20T03:13:40;30.07;;;19.70;;
14358;SDS011;7263;49.418;11.064;2022-11-20T03:16:09;27.80;;;18.60;;
14358;SDS011;7263;49.418;11.064;2022-11-20T03:18:37;28.97;;;19.73;;
14358;SDS011;7263;49.418;11.064;2022-11-20T03:21:05;28.03;;;19.97;;
14358;SDS011;7263;49.418;11.064;2022-11-20T03:23:32;28.90;;;20.13;;
14358;SDS011;7263;49.418;11.064;2022-11-20T03:26:09;27.53;;;19.20;;
14358;SDS011;7263;49.418;11.064;2022-11-20T03:28:38;29.93;;;20.20;;
14358;SDS011;7263;49.418;11.064;2022-11-20T03:31:06;29.43;;;20.27;;
14358;SDS011;7263;49.418;11.064;2022-11-20T03:33:40;33.20;;;21.30;;
14358;SDS011;7263;49.418;11.064;2022-11-20T03:36:09;31.60;;;20.17;;
14358;SDS011;7263;49.418;11.064;2022-11-20T03:38:37;30.03;;;20.47;;
14358;SDS011;7263;49.418;11.064;2022-11-20T03:41:06;30.93;;;21.40;;
14358;SDS011;7263;49.418;11.064;2022-11-20T03:43:33;31.43;;;20.03;;
14358;SDS011;7263;49.418;11.064;2022-11-20T03:46:01;31.93;;;20.87;;
14358;SDS011;7263;49.418;11.064;2022-11-20T03:48:30;34.93;;;21.10;;
14358;SDS011;7263;49.418;11.064;2022-11-20T03:51:06;36.50;;;20.90;;
14358;SDS011;7263;49.418;11.064;2022-11-20T03:53:34;34.20;;;22.27;;
14358;SDS011;7263;49.418;11.064;2022-11-20T03:56:01;38.83;;;21.60;;
14358;SDS011;7263;49.418;11.064;2022-11-20T03:58:28;30.60;;;20.40;;
14358;SDS011;7263;49.418;11.064;2022-11-20T04:00:55;28.03;;;19.67;;
14358;SDS011;7263;49.418;11.064;2022-11-20T04:03:22;29.93;;;20.60;;
14358;SDS011;7263;49.418;11.064;2022-11-20T04:05:50;35.63;;;20.23;;
14358;SDS011;7263;49.418;11.064;2022-11-20T04:08:17;41.13;;;21.37;;
14358;SDS011;7263;49.418;11.064;2022-11-20T04:10:44;32.37;;;20.97;;
14358;SDS011;7263;49.418;11.064;2022-11-20T04:13:11;33.23;;;20.40;;
14358;SDS011;7263;49.418;11.064;2022-11-20T04:15:38;31.50;;;20.57;;
14358;SDS011;7263;49.418;11.064;2022-11-20T04:18:05;30.27;;;19.37;;
14358;SDS011;7263;49.418;11.064;2022-11-20T04:20:32;37.67;;;21.47;;
14358;SDS011;7263;49.418;11.064;2022-11-20T04:23:01;37.17;;;20.57;;
14358;SDS011;7263;49.418;11.064;2022-11-20T04:25:27;31.60;;;19.47;;
14358;SDS011;7263;49.418;11.064;2022-11-20T04:27:54;29.83;;;19.97;;
14358;SDS011;7263;49.418;11.064;2022-11-20T04:30:21;30.10;;;20.17;;
14358;SDS011;7263;49.418;11.064;2022-11-20T04:32:48;28.07;;;18.93;;
14358;SDS011;7263;49.418;11.064;2022-11-20T04:35:15;31.30;;;20.80;;
14358;SDS011;7263;49.418;11.064;2022-11-20T04:37:42;30.07;;;20.47;;
14358;SDS011;7263;49.418;11.064;2022-11-20T04:40:10;34.07;;;22.43;;
14358;SDS011;7263;49.418;11.064;2022-11-20T04:42:38;39.53;;;25.73;;
14358;SDS011;7263;49.418;11.064;2022-11-20T04:45:05;35.00;;;22.23;;
14358;SDS011;7263;49.418;11.064;2022-11-20T04:47:32;32.63;;;20.97;;
14358;SDS011;7263;49.418;11.064;2022-11-20T04:49:59;40.63;;;21.60;;
14358;SDS011;7263;49.418;11.064;2022-11-20T04:52:26;33.60;;;22.03;;
14358;SDS011;7263;49.418;11.064;2022-11-20T04:54:52;35.10;;;22.83;;
14358;SDS011;7263;49.418;11.064;2022-11-20T04:57:21;29.10;;;19.80;;
14358;SDS011;7263;49.418;11.064;2022-11-20T04:59:47;29.97;;;20.07;;
14358;SDS011;7263;49.418;11.064;2022-11-20T05:02:14;27.57;;;18.30;;
14358;SDS011;7263;49.418;11.064;2022-11-20T05:04:41;26.73;;;17.47;;
14358;SDS011;7263;49.418;11.064;2022-11-20T05:07:08;27.13;;;19.13;;
14358;SDS011;7263;49.418;11.064;2022-11-20T05:09:35;28.60;;;18.57;;
14358;SDS011;7263;49.418;11.064;2022-11-20T05:12:02;30.57;;;20.20;;
14358;SDS011;7263;49.418;11.064;2022-11-20T05:14:30;28.23;;;19.20;;
14358;SDS011;7263;49.418;11.064;2022-11-20T05:16:57;24.87;;;17.33;;
14358;SDS011;7263;49.418;11.064;2022-11-20T05:19:24;29.53;;;18.73;;
14358;SDS011;7263;49.418;11.064;2022-11-20T05:21:51;26.27;;;17.17;;
14358;SDS011;7263;49.418;11.064;2022-11-20T05:24:18;24.70;;;16.80;;
14358;SDS011;7263;49.418;11.064;2022-11-20T05:26:45;26.53;;;18.00;;
14358;SDS011;7263;49.418;11.064;2022-11-20T05:29:12;29.13;;;17.40;;
14358;SDS011;7263;49.418;11.064;2022-11-20T05:31:40;26.00;;;17.07;;
14358;SDS011;7263;49.418;11.064;2022-11-20T05:34:07;26.90;;;17.20;;
14358;SDS011;7263;49.418;11.064;2022-11-20T05:36:34;31.17;;;20.60;;
14358;SDS011;7263;49.418;11.064;2022-11-20T05:39:01;28.30;;;19.47;;
14358;SDS011;7263;49.418;11.064;2022-11-20T05:41:28;24.97;;;16.80;;
14358;SDS011;7263;49.418;11.064;2022-11-20T05:43:55;26.43;;;16.20;;
14358;SDS011;7263;49.418;11.064;2022-11-20T05:46:22;27.33;;;16.70;;
14358;SDS011;7263;49.418;11.064;2022-11-20T05:48:51;25.83;;;15.97;;
14358;SDS011;7263;49.418;11.064;2022-11-20T05:51:18;27.70;;;16.20;;
14358;SDS011;7263;49.418;11.064;2022-11-20T05:53:45;29.97;;;16.77;;
14358;SDS011;7263;49.418;11.064;2022-11-20T05:56:13;25.63;;;15.83;;
14358;SDS011;7263;49.418;11.064;2022-11-20T05:58:41;25.57;;;15.87;;
14358;SDS011;7263;49.418;11.064;2022-11-20T06:01:10;28.40;;;16.37;;
14358;SDS011;7263;49.418;11.064;2022-11-20T06:03:38;26.33;;;16.60;;
14358;SDS011;7263;49.418;11.064;2022-11-20T06:06:08;26.60;;;16.30;;
14358;SDS011;7263;49.418;11.064;2022-11-20T06:08:35;28.47;;;16.10;;
14358;SDS011;7263;49.418;11.064;2022-11-20T06:11:03;27.47;;;16.60;;
14358;SDS011;7263;49.418;11.064;2022-11-20T06:13:30;29.37;;;22.27;;
14358;SDS011;7263;49.418;11.064;2022-11-20T06:15:57;29.67;;;21.37;;
14358;SDS011;7263;49.418;11.064;2022-11-20T06:18:25;35.60;;;20.53;;
14358;SDS011;7263;49.418;11.064;2022-11-20T06:20:58;27.37;;;18.73;;
14358;SDS011;7263;49.418;11.064;2022-11-20T06:23:29;23.23;;;16.27;;
14358;SDS011;7263;49.418;11.064;2022-11-20T06:25:56;25.83;;;17.47;;
14358;SDS011;7263;49.418;11.064;2022-11-20T06:28:23;25.83;;;16.23;;
14358;SDS011;7263;49.418;11.064;2022-11-20T06:30:50;24.47;;;15.33;;
14358;SDS011;7263;49.418;11.064;2022-11-20T06:33:17;26.80;;;16.47;;
14358;SDS011;7263;49.418;11.064;2022-11-20T06:35:44;24.87;;;16.50;;
14358;SDS011;7263;49.418;11.064;2022-11-20T06:38:10;27.03;;;18.37;;
14358;SDS011;7263;49.418;11.064;2022-11-20T06:40:40;27.63;;;20.47;;
14358;SDS011;7263;49.418;11.064;2022-11-20T06:43:07;23.90;;;15.73;;
14358;SDS011;7263;49.418;11.064;2022-11-20T06:45:34;23.23;;;14.50;;
14358;SDS011;7263;49.418;11.064;2022-11-20T06:48:01;23.23;;;15.13;;
14358;SDS011;7263;49.418;11.064;2022-11-20T06:50:28;22.40;;;13.90;;
14358;SDS011;7263;49.418;11.064;2022-11-20T06:52:55;23.53;;;14.37;;
14358;SDS011;7263;49.418;11.064;2022-11-20T06:55:22;19.00;;;13.20;;
14358;SDS011;7263;49.418;11.064;2022-11-20T06:57:51;21.77;;;13.93;;
14358;SDS011;7263;49.418;11.064;2022-11-20T07:00:18;19.13;;;13.27;;
14358;SDS011;7263;49.418;11.064;2022-11-20T07:02:44;22.87;;;14.33;;
14358;SDS011;7263;49.418;11.064;2022-11-20T07:05:11;21.93;;;14.20;;
14358;SDS011;7263;49.418;11.064;2022-11-20T07:07:38;25.90;;;14.90;;
14358;SDS011;7263;49.418;11.064;2022-11-20T07:10:05;22.40;;;14.53;;
14358;SDS011;7263;49.418;11.064;2022-11-20T07:12:32;20.63;;;13.43;;
14358;SDS011;7263;49.418;11.064;2022-11-20T07:15:00;24.33;;;14.10;;
14358;SDS011;7263;49.418;11.064;2022-11-20T07:17:27;19.63;;;13.27;;
14358;SDS011;7263;49.418;11.064;2022-11-20T07:19:55;22.10;;;14.17;;
14358;SDS011;7263;49.418;11.064;2022-11-20T07:22:21;22.27;;;13.23;;
14358;SDS011;7263;49.418;11.064;2022-11-20T07:24:48;21.73;;;13.20;;
14358;SDS011;7263;49.418;11.064;2022-11-20T07:27:15;19.47;;;12.90;;
14358;SDS011;7263;49.418;11.064;2022-11-20T07:29:42;19.07;;;12.13;;
14358;SDS011;7263;49.418;11.064;2022-11-20T07:32:10;19.80;;;12.53;;
14358;SDS011;7263;49.418;11.064;2022-11-20T07:34:37;19.43;;;13.23;;
14358;SDS011;7263;49.418;11.064;2022-11-20T07:37:04;20.07;;;13.50;;
14358;SDS011;7263;49.418;11.064;2022-11-20T07:39:30;25.10;;;14.70;;
14358;SDS011;7263;49.418;11.064;2022-11-20T07:41:57;19.20;;;13.00;;
14358;SDS011;7263;49.418;11.064;2022-11-20T07:44:24;23.43;;;14.53;;
14358;SDS011;7263;49.418;11.064;2022-11-20T07:46:51;17.47;;;13.43;;
14358;SDS011;7263;49.418;11.064;2022-11-20T07:49:20;17.97;;;12.37;;
14358;SDS011;7263;49.418;11.064;2022-11-20T07:51:47;23.00;;;13.97;;
14358;SDS011;7263;49.418;11.064;2022-11-20T07:54:16;19.03;;;12.70;;
14358;SDS011;7263;49.418;11.064;2022-11-20T07:56:43;21.60;;;13.70;;
14358;SDS011;7263;49.418;11.064;2022-11-20T07:59:09;22.00;;;13.73;;
14358;SDS011;7263;49.418;11.064;2022-11-20T08:01:37;22.23;;;14.43;;
14358;SDS011;7263;49.418;11.064;2022-11-20T08:04:03;19.97;;;14.10;;
14358;SDS011;7263;49.418;11.064;2022-11-20T08:06:32;21.13;;;15.90;;
14358;SDS011;7263;49.418;11.064;2022-11-20T08:08:59;32.43;;;24.50;;
14358;SDS011;7263;49.418;11.064;2022-11-20T08:11:26;41.23;;;33.57;;
14358;SDS011;7263;49.418;11.064;2022-11-20T08:14:10;37.80;;;28.37;;
14358;SDS011;7263;49.418;11.064;2022-11-20T08:16:41;24.63;;;18.93;;
14358;SDS011;7263;49.418;11.064;2022-11-20T08:19:09;21.40;;;15.50;;
14358;SDS011;7263;49.418;11.064;2022-11-20T08:21:37;23.40;;;17.17;;
14358;SDS011;7263;49.418;11.064;2022-11-20T08:24:05;20.87;;;15.93;;
14358;SDS011;7263;49.418;11.064;2022-11-20T08:26:32;17.80;;;13.60;;
14358;SDS011;7263;49.418;11.064;2022-11-20T08:29:00;17.47;;;12.50;;
14358;SDS011;7263;49.418;11.064;2022-11-20T08:31:27;18.13;;;13.37;;
14358;SDS011;7263;49.418;11.064;2022-11-20T08:33:54;19.80;;;14.80;;
14358;SDS011;7263;49.418;11.064;2022-11-20T08:36:22;18.93;;;14.23;;
14358;SDS011;7263;49.418;11.064;2022-11-20T08:38:51;19.63;;;15.10;;
14358;SDS011;7263;49.418;11.064;2022-11-20T08:41:19;18.87;;;13.97;;
14358;SDS011;7263;49.418;11.064;2022-11-20T08:43:53;18.43;;;13.30;;
14358;SDS011;7263;49.418;11.064;2022-11-20T08:49:43;16.90;;;13.83;;
14358;SDS011;7263;49.418;11.064;2022-11-20T08:52:10;18.80;;;15.00;;
14358;SDS011;7263;49.418;11.064;2022-11-20T08:54:38;14.63;;;11.87;;
14358;SDS011;7263;49.418;11.064;2022-11-20T08:57:05;16.33;;;13.60;;
14358;SDS011;7263;49.418;11.064;2022-11-20T08:59:32;18.03;;;12.67;;
14358;SDS011;7263;49.418;11.064;2022-11-20T09:01:59;14.07;;;11.57;;
14358;SDS011;7263;49.418;11.064;2022-11-20T09:04:26;14.97;;;12.37;;
14358;SDS011;7263;49.418;11.064;2022-11-20T09:06:52;17.63;;;12.87;;
14358;SDS011;7263;49.418;11.064;2022-11-20T09:09:19;15.97;;;12.17;;
14358;SDS011;7263;49.418;11.064;2022-11-20T09:11:47;17.57;;;12.77;;
14358;SDS011;7263;49.418;11.064;2022-11-20T09:14:15;18.57;;;13.30;;
14358;SDS011;7263;49.418;11.064;2022-11-20T09:16:41;18.03;;;14.20;;
14358;SDS011;7263;49.418;11.064;2022-11-20T09:19:08;21.63;;;15.73;;
14358;SDS011;7263;49.418;11.064;2022-11-20T09:21:35;19.07;;;14.00;;
14358;SDS011;7263;49.418;11.064;2022-11-20T09:24:03;18.83;;;14.73;;
14358;SDS011;7263;49.418;11.064;2022-11-20T09:26:31;19.80;;;15.20;;
14358;SDS011;7263;49.418;11.064;2022-11-20T09:28:59;16.90;;;13.87;;
14358;SDS011;7263;49.418;11.064;2022-11-20T09:31:26;20.93;;;15.97;;
14358;SDS011;7263;49.418;11.064;2022-11-20T09:33:52;21.87;;;19.40;;
14358;SDS011;7263;49.418;11.064;2022-11-20T09:36:19;18.60;;;14.87;;
14358;SDS011;7263;49.418;11.064;2022-11-20T09:38:46;14.47;;;12.63;;
14358;SDS011;7263;49.418;11.064;2022-11-20T09:41:19;15.97;;;12.13;;
14358;SDS011;7263;49.418;11.064;2022-11-20T09:49:22;16.80;;;12.90;;
14358;SDS011;7263;49.418;11.064;2022-11-20T09:51:53;14.67;;;11.60;;
14358;SDS011;7263;49.418;11.064;2022-11-20T09:54:26;14.03;;;11.30;;
14358;SDS011;7263;49.418;11.064;2022-11-20T09:56:58;15.30;;;13.17;;
14358;SDS011;7263;49.418;11.064;2022-11-20T09:59:31;13.70;;;11.33;;
14358;SDS011;7263;49.418;11.064;2022-11-20T10:02:02;12.13;;;10.93;;
14358;SDS011;7263;49.418;11.064;2022-11-20T10:04:43;18.20;;;14.60;;
14358;SDS011;7263;49.418;11.064;2022-11-20T10:07:16;18.70;;;13.63;;
14358;SDS011;7263;49.418;11.064;2022-11-20T10:09:49;16.23;;;13.00;;
14358;SDS011;7263;49.418;11.064;2022-11-20T10:12:20;16.53;;;12.07;;
14358;SDS011;7263;49.418;11.064;2022-11-20T10:14:58;14.53;;;11.37;;
14358;SDS011;7263;49.418;11.064;2022-11-20T10:17:42;15.80;;;11.90;;
14358;SDS011;7263;49.418;11.064;2022-11-20T10:20:33;13.33;;;11.93;;
14358;SDS011;7263;49.418;11.064;2022-11-20T10:23:15;14.93;;;11.77;;
14358;SDS011;7263;49.418;11.064;2022-11-20T10:25:55;20.00;;;15.80;;
14358;SDS011;7263;49.418;11.064;2022-11-20T10:28:30;23.73;;;21.13;;
14358;SDS011;7263;49.418;11.064;2022-11-20T10:31:09;18.23;;;15.10;;
14358;SDS011;7263;49.418;11.064;2022-11-20T10:33:51;13.83;;;11.10;;
14358;SDS011;7263;49.418;11.064;2022-11-20T10:36:22;13.00;;;10.80;;
14358;SDS011;7263;49.418;11.064;2022-11-20T10:38:54;16.57;;;11.53;;
14358;SDS011;7263;49.418;11.064;2022-11-20T10:41:26;14.00;;;11.27;;
14358;SDS011;7263;49.418;11.064;2022-11-20T10:44:00;14.60;;;10.97;;
14358;SDS011;7263;49.418;11.064;2022-11-20T10:46:32;13.37;;;10.27;;
14358;SDS011;7263;49.418;11.064;2022-11-20T10:49:10;12.70;;;9.80;;
14358;SDS011;7263;49.418;11.064;2022-11-20T10:51:43;14.30;;;10.90;;
14358;SDS011;7263;49.418;11.064;2022-11-20T10:54:18;13.20;;;9.97;;
14358;SDS011;7263;49.418;11.064;2022-11-20T10:56:53;9.90;;;8.57;;
14358;SDS011;7263;49.418;11.064;2022-11-20T10:59:27;10.80;;;9.37;;
14358;SDS011;7263;49.418;11.064;2022-11-20T11:02:14;11.03;;;9.80;;
14358;SDS011;7263;49.418;11.064;2022-11-20T11:04:42;12.67;;;10.33;;
14358;SDS011;7263;49.418;11.064;2022-11-20T11:07:15;13.63;;;12.23;;
14358;SDS011;7263;49.418;11.064;2022-11-20T11:09:47;11.43;;;9.23;;
14358;SDS011;7263;49.418;11.064;2022-11-20T11:12:16;10.80;;;8.13;;
14358;SDS011;7263;49.418;11.064;2022-11-20T11:14:44;12.07;;;9.60;;
14358;SDS011;7263;49.418;11.064;2022-11-20T11:17:22;12.43;;;9.67;;
14358;SDS011;7263;49.418;11.064;2022-11-20T11:19:59;10.53;;;9.20;;
14358;SDS011;7263;49.418;11.064;2022-11-20T11:22:30;10.37;;;7.83;;
14358;SDS011;7263;49.418;11.064;2022-11-20T11:24:58;9.70;;;7.70;;
14358;SDS011;7263;49.418;11.064;2022-11-20T11:27:26;9.80;;;7.60;;
14358;SDS011;7263;49.418;11.064;2022-11-20T11:30:01;12.17;;;9.20;;
14358;SDS011;7263;49.418;11.064;2022-11-20T11:32:30;11.07;;;9.00;;
14358;SDS011;7263;49.418;11.064;2022-11-20T11:35:00;11.10;;;8.50;;
14358;SDS011;7263;49.418;11.064;2022-11-20T11:37:32;11.57;;;9.00;;
14358;SDS011;7263;49.418;11.064;2022-11-20T11:40:00;12.13;;;9.10;;
14358;SDS011;7263;49.418;11.064;2022-11-20T11:42:28;9.70;;;8.07;;
14358;SDS011;7263;49.418;11.064;2022-11-20T11:44:56;8.63;;;7.23;;
14358;SDS011;7263;49.418;11.064;2022-11-20T11:47:31;7.50;;;6.80;;
14358;SDS011;7263;49.418;11.064;2022-11-20T11:50:08;9.90;;;8.57;;
14358;SDS011;7263;49.418;11.064;2022-11-20T11:52:50;10.80;;;9.53;;
14358;SDS011;7263;49.418;11.064;2022-11-20T11:55:32;11.13;;;9.93;;
14358;SDS011;7263;49.418;11.064;2022-11-20T11:58:14;10.53;;;9.30;;
14358;SDS011;7263;49.418;11.064;2022-11-20T12:00:51;12.23;;;9.40;;
14358;SDS011;7263;49.418;11.064;2022-11-20T12:03:24;9.40;;;8.47;;
14358;SDS011;7263;49.418;11.064;2022-11-20T12:05:57;9.33;;;8.43;;
14358;SDS011;7263;49.418;11.064;2022-11-20T12:08:27;10.20;;;8.73;;
14358;SDS011;7263;49.418;11.064;2022-11-20T12:11:00;8.97;;;8.03;;
14358;SDS011;7263;49.418;11.064;2022-11-20T12:13:34;9.17;;;8.20;;
14358;SDS011;7263;49.418;11.064;2022-11-20T12:16:07;7.47;;;6.73;;
14358;SDS011;7263;49.418;11.064;2022-11-20T12:18:39;8.97;;;7.87;;
14358;SDS011;7263;49.418;11.064;2022-11-20T12:21:11;7.77;;;7.03;;
14358;SDS011;7263;49.418;11.064;2022-11-20T12:26:52;8.10;;;7.30;;
14358;SDS011;7263;49.418;11.064;2022-11-20T12:29:30;7.40;;;6.60;;
14358;SDS011;7263;49.418;11.064;2022-11-20T12:32:26;8.23;;;6.53;;
14358;SDS011;7263;49.418;11.064;2022-11-20T12:35:05;8.00;;;6.70;;
14358;SDS011;7263;49.418;11.064;2022-11-20T12:37:48;13.43;;;11.43;;
14358;SDS011;7263;49.418;11.064;2022-11-20T12:40:30;12.60;;;11.30;;
14358;SDS011;7263;49.418;11.064;2022-11-20T12:43:03;9.50;;;8.60;;
14358;SDS011;7263;49.418;11.064;2022-11-20T12:45:58;8.27;;;7.37;;
14358;SDS011;7263;49.418;11.064;2022-11-20T12:48:50;7.13;;;6.43;;
14358;SDS011;7263;49.418;11.064;2022-11-20T12:54:32;6.87;;;6.27;;
14358;SDS011;7263;49.418;11.064;2022-11-20T12:57:18;7.60;;;6.53;;
14358;SDS011;7263;49.418;11.064;2022-11-20T12:59:55;10.17;;;9.00;;
14358;SDS011;7263;49.418;11.064;2022-11-20T13:02:30;8.30;;;7.40;;
14358;SDS011;7263;49.418;11.064;2022-11-20T13:05:08;12.40;;;9.67;;
14358;SDS011;7263;49.418;11.064;2022-11-20T13:07:47;8.67;;;7.17;;
14358;SDS011;7263;49.418;11.064;2022-11-20T13:10:20;6.97;;;6.27;;
14358;SDS011;7263;49.418;11.064;2022-11-20T13:12:54;8.10;;;6.67;;
14358;SDS011;7263;49.418;11.064;2022-11-20T13:15:31;9.93;;;8.10;;
14358;SDS011;7263;49.418;11.064;2022-11-20T13:18:07;11.50;;;8.00;;
14358;SDS011;7263;49.418;11.064;2022-11-20T13:20:40;10.17;;;6.60;;
14358;SDS011;7263;49.418;11.064;2022-11-20T13:23:08;7.37;;;5.80;;
14358;SDS011;7263;49.418;11.064;2022-11-20T13:25:35;6.13;;;5.53;;
14358;SDS011;7263;49.418;11.064;2022-11-20T13:28:25;7.60;;;6.30;;
14358;SDS011;7263;49.418;11.064;2022-11-20T13:30:53;7.30;;;6.57;;
14358;SDS011;7263;49.418;11.064;2022-11-20T13:33:23;7.23;;;6.30;;
14358;SDS011;7263;49.418;11.064;2022-11-20T13:35:55;7.43;;;6.63;;
14358;SDS011;7263;49.418;11.064;2022-11-20T13:38:23;8.50;;;6.17;;
14358;SDS011;7263;49.418;11.064;2022-11-20T13:40:51;7.43;;;6.43;;
14358;SDS011;7263;49.418;11.064;2022-11-20T13:43:23;11.40;;;9.20;;
14358;SDS011;7263;49.418;11.064;2022-11-20T13:46:00;10.63;;;9.53;;
14358;SDS011;7263;49.418;11.064;2022-11-20T13:48:29;12.30;;;11.03;;
14358;SDS011;7263;49.418;11.064;2022-11-20T13:51:09;14.83;;;13.43;;
14358;SDS011;7263;49.418;11.064;2022-11-20T13:56:52;10.00;;;7.53;;
14358;SDS011;7263;49.418;11.064;2022-11-20T13:59:40;7.53;;;6.50;;
14358;SDS011;7263;49.418;11.064;2022-11-20T14:02:13;9.43;;;8.40;;
14358;SDS011;7263;49.418;11.064;2022-11-20T14:04:42;10.23;;;8.77;;
14358;SDS011;7263;49.418;11.064;2022-11-20T14:07:11;9.27;;;8.33;;
14358;SDS011;7263;49.418;11.064;2022-11-20T14:09:38;9.57;;;8.57;;
14358;SDS011;7263;49.418;11.064;2022-11-20T14:12:17;9.77;;;8.13;;
14358;SDS011;7263;49.418;11.064;2022-11-20T14:14:50;11.03;;;9.13;;
14358;SDS011;7263;49.418;11.064;2022-11-20T14:17:19;9.07;;;8.17;;
14358;SDS011;7263;49.418;11.064;2022-11-20T14:19:47;9.30;;;8.07;;
14358;SDS011;7263;49.418;11.064;2022-11-20T14:22:17;8.60;;;7.80;;
14358;SDS011;7263;49.418;11.064;2022-11-20T14:24:46;12.87;;;8.97;;
14358;SDS011;7263;49.418;11.064;2022-11-20T14:27:14;10.73;;;9.17;;
14358;SDS011;7263;49.418;11.064;2022-11-20T14:29:42;13.97;;;10.70;;
14358;SDS011;7263;49.418;11.064;2022-11-20T14:32:12;15.93;;;11.87;;
14358;SDS011;7263;49.418;11.064;2022-11-20T14:34:43;32.17;;;28.77;;
14358;SDS011;7263;49.418;11.064;2022-11-20T14:37:12;28.70;;;25.70;;
14358;SDS011;7263;49.418;11.064;2022-11-20T14:39:47;9.97;;;8.87;;
14358;SDS011;7263;49.418;11.064;2022-11-20T14:42:16;9.40;;;8.23;;
14358;SDS011;7263;49.418;11.064;2022-11-20T14:44:44;10.30;;;9.20;;
14358;SDS011;7263;49.418;11.064;2022-11-20T14:47:13;12.27;;;9.37;;
14358;SDS011;7263;49.418;11.064;2022-11-20T14:49:44;10.23;;;8.77;;
14358;SDS011;7263;49.418;11.064;2022-11-20T14:52:13;8.77;;;7.50;;
14358;SDS011;7263;49.418;11.064;2022-11-20T14:54:44;10.23;;;8.73;;
14358;SDS011;7263;49.418;11.064;2022-11-20T14:57:25;9.03;;;7.80;;
14358;SDS011;7263;49.418;11.064;2022-11-20T15:00:06;8.97;;;7.40;;